• Join FlightAware (Why Join?)
  • Login
  • US Flag 
02:02AM EDT


 

Airport Tracker/Info


-or-


 

Live Flight TrackerFlight Track Log ✈ AAL2345 ✈ 04-Jun-2013 ✈ KORD - KDFW

Flight Track Log - Related Links

Times and Time Zones

All times are in EDT time to prevent confusion due to time zone crossing. See the AAL2345 flight status page for this flight to view local times or setup timezone preferences in your user account.

Time Position Orientation Groundspeed Altitude Reporting Facility
EDT Latitude Longitude Course Direction KTS MPH feet Rate Location/Type
06:51PM 41.9833 -87.8500 194° South 164 189 2,200  Level Chicago TRACON
06:52PM 41.9833 -87.7833 90° East 228 262 3,900 1,380 Climbing Chicago TRACON
06:53PM 41.9167 -87.7667 169° South 264 304 5,000 480 Climbing Chicago TRACON
06:54PM 41.7566 -88.1729 201° Southwest  Level Estimated
06:54PM 41.8419 -87.7600 176° South 253 291 5,000  Level Chicago Center
06:55PM 41.6814 -88.2613 197° South  Level Estimated
06:55PM 41.7636 -87.8078 204° Southwest 274 315 7,900  Level Chicago Center
06:56PM 41.5867 -88.2187 161° South  Level FlightAware Approximate
06:57PM 41.5087 -88.3114 194° South  Level Estimated
06:57PM 41.7025 -87.8656 215° Southwest 273 314 10,900  Level Chicago Center
06:58PM 41.6403 -87.9275 217° Southwest 277 319 13,600 2,520 Climbing Chicago Center
06:59PM 41.5825 -87.9922 220° Southwest 276 318 16,200 2,220 Climbing Chicago Center
07:00PM 41.5083 -88.0703 218° Southwest 285 328 18,200 1,800 Climbing Chicago Center
07:01PM 41.4436 -88.1378 218° Southwest 304 350 20,000 1,500 Climbing Chicago Center
07:02PM 41.3692 -88.1983 211° Southwest 333 383 21,400 1,020 Climbing Chicago Center
07:03PM 41.2769 -88.2383 198° South 354 407 22,200 780 Climbing Chicago Center
07:04PM 41.1533 -88.2939 199° South 391 450 23,100 1,020 Climbing Chicago Center
07:05PM 41.0411 -88.3456 199° South 425 489 24,400 1,380 Climbing Chicago Center
07:06PM 40.9267 -88.3953 198° South 435 501 26,000 1,500 Climbing Chicago Center
07:07PM 40.8117 -88.4461 198° South 439 505 27,600 1,620 Climbing Chicago Center
07:08PM 40.6908 -88.5489 213° Southwest 430 495 29,400 1,500 Climbing Chicago Center
07:09PM 40.5933 -88.6364 214° Southwest 430 495 30,800 1,260 Climbing Chicago Center
07:10PM 40.4953 -88.7219 214° Southwest 427 491 32,100 1,020 Climbing Chicago Center
07:11PM 40.3958 -88.8061 213° Southwest 424 488 33,000 720 Climbing Chicago Center
07:12PM 40.3014 -88.8903 214° Southwest 415 478 33,700 480 Climbing Chicago Center
07:13PM 40.2033 -88.9744 213° Southwest 418 481 34,000 120 Climbing Chicago Center
07:14PM 40.1083 -89.0567 214° Southwest 409 471 34,000  Level Chicago Center
07:15PM 40.0119 -89.1403 214° Southwest 412 474 34,000  Level Kansas City Center
07:16PM 39.9194 -89.2192 213° Southwest 403 464 34,000  Level Kansas City Center
07:17PM 39.8247 -89.3003 213° Southwest 404 465 34,000  Level Kansas City Center
07:18PM 39.7300 -89.3817 213° Southwest 406 467 34,000  Level Kansas City Center
07:19PM 39.6375 -89.4594 213° Southwest 405 466 34,000 -180 Level Kansas City Center
07:20PM 39.5433 -89.5403 214° Southwest 405 466 33,700 -720 Descending Kansas City Center
07:21PM 39.4303 -89.6356 213° Southwest 405 466 32,600 -840 Descending Kansas City Center
07:22PM 39.3350 -89.7181 214° Southwest 410 472 32,000 -300 Descending Kansas City Center
07:23PM 39.2394 -89.7986 213° Southwest 411 473 32,000  Level Kansas City Center
07:24PM 39.1308 -89.8908 213° Southwest 411 473 32,000  Level Kansas City Center
07:25PM 39.0353 -89.9706 213° Southwest 412 474 32,000  Level Kansas City Center
07:26PM 38.9608 -90.0525 221° Southwest 408 470 32,000  Level Kansas City Center
07:27PM 38.8739 -90.1747 228° Southwest 404 465 32,000  Level Kansas City Center
07:28PM 38.7953 -90.2808 226° Southwest 406 467 32,000  Level Kansas City Center
07:29PM 38.7167 -90.3867 226° Southwest 408 470 32,000  Level Kansas City Center
07:30PM 38.6372 -90.4936 226° Southwest 414 476 32,000  Level Kansas City Center
07:31PM 38.5425 -90.6217 227° Southwest 418 481 32,000  Level Kansas City Center
07:33PM 38.4683 -90.7217 227° Southwest 413 475 32,000  Level Kansas City Center
07:34PM 38.3897 -90.8264 226° Southwest 412 474 32,000  Level Kansas City Center
07:35PM 38.3106 -90.9339 227° Southwest 416 479 32,000  Level Kansas City Center
07:36PM 38.2283 -91.0406 226° Southwest 421 484 32,000  Level Kansas City Center
07:37PM 38.1417 -91.1556 226° Southwest 416 479 32,000  Level Kansas City Center
07:38PM 38.0622 -91.2631 227° Southwest 415 478 32,000  Level Kansas City Center
07:39PM 37.9642 -91.3919 226° Southwest 418 481 32,000  Level Kansas City Center
07:40PM 37.8825 -91.4997 226° Southwest 420 483 32,000  Level Kansas City Center
07:41PM 37.8014 -91.6067 226° Southwest 419 482 32,000  Level Kansas City Center
07:42PM 37.7206 -91.7131 226° Southwest 417 480 32,000  Level Kansas City Center
07:43PM 37.6381 -91.8189 225° Southwest 417 480 32,000 -120 Level Kansas City Center
07:44PM 37.5578 -91.9253 226° Southwest 416 479 31,800 -540 Descending Kansas City Center
07:45PM 37.4739 -92.0311 225° Southwest 420 483 30,900 -900 Descending Kansas City Center
07:46PM 37.3825 -92.1294 221° Southwest 425 489 30,000 -480 Descending Kansas City Center
07:47PM 37.2731 -92.2517 222° Southwest 433 498 30,000  Level Kansas City Center
07:48PM 37.1828 -92.3519 222° Southwest 432 497 30,000  Level Kansas City Center
07:49PM 37.0922 -92.4517 221° Southwest 431 496 30,000  Level Kansas City Center
07:50PM 37.0014 -92.5503 221° Southwest 430 495 30,000  Level Kansas City Center
07:51PM 36.9108 -92.6486 221° Southwest 429 494 30,000  Level Kansas City Center
07:52PM 36.8200 -92.7469 221° Southwest 430 495 30,000  Level Kansas City Center
07:53PM 36.7283 -92.8444 220° Southwest 430 495 30,000  Level Kansas City Center
07:54PM 36.6383 -92.9425 221° Southwest 428 493 30,000  Level Kansas City Center
07:55PM 36.5444 -93.0436 221° Southwest 429 494 30,000  Level Kansas City Center
07:56PM 36.4544 -93.1408 221° Southwest 430 495 30,000  Level Kansas City Center
07:57PM 36.3475 -93.2564 221° Southwest 427 491 30,000  Level Kansas City Center
07:58PM 36.2903 -93.3231 223° Southwest 435 501 30,000  Level Memphis Center
07:59PM 36.1961 -93.4225 220° Southwest 435 501 30,000  Level Memphis Center
08:00PM 36.1042 -93.5167 220° Southwest 440 506 30,000  Level Memphis Center
08:01PM 36.0139 -93.6161 222° Southwest 440 506 30,000  Level Memphis Center
08:02PM 35.9217 -93.7147 221° Southwest 440 506 30,000  Level Memphis Center
08:03PM 35.8314 -93.8111 221° Southwest 440 506 30,000  Level Memphis Center
08:04PM 35.7392 -93.9044 219° Southwest 440 506 30,000  Level Memphis Center
08:05PM 35.6444 -94.0025 220° Southwest 440 506 30,000  Level Memphis Center
08:06PM 35.5433 -94.1103 221° Southwest 440 506 30,000  Level Memphis Center
08:07PM 35.4486 -94.2056 219° Southwest 440 506 30,000  Level Memphis Center
08:08PM 35.3581 -94.3031 221° Southwest 440 506 30,000  Level Memphis Center
08:10PM 35.2111 -94.4661 222° Southwest 439 505 30,000  Level Fort Worth Center
08:11PM 35.1194 -94.5631 221° Southwest 439 505 30,000  Level Fort Worth Center
08:12PM 35.0300 -94.6650 223° Southwest 445 512 30,000  Level Fort Worth Center
08:13PM 34.9403 -94.7567 220° Southwest 445 512 30,000  Level Fort Worth Center
08:14PM 34.8506 -94.8606 224° Southwest 445 512 30,000 -240 Level Fort Worth Center
08:15PM 34.7586 -94.9569 221° Southwest 445 512 29,600 -720 Descending Fort Worth Center
08:16PM 34.6667 -95.0556 221° Southwest 445 512 28,600 -960 Descending Fort Worth Center
08:17PM 34.5461 -95.0789 189° South 432 497 27,700 -1,020 Descending Fort Worth Center
08:18PM 34.4208 -95.0822 181° South 428 493 26,600 -1,080 Descending Fort Worth Center
08:19PM 34.3219 -95.1453 208° Southwest 411 473 25,600 -1,020 Descending Fort Worth Center
08:20PM 34.2486 -95.2503 230° Southwest 405 466 24,600 -840 Descending Fort Worth Center
08:21PM 34.1753 -95.3550 230° Southwest 405 466 24,000 -300 Descending Fort Worth Center
08:22PM 34.0997 -95.4597 229° Southwest 411 473 24,000  Level Fort Worth Center
08:23PM 34.0219 -95.5617 227° Southwest 416 479 24,000  Level Fort Worth Center
08:24PM 33.9422 -95.6761 230° Southwest 410 472 24,000 -600 Level Fort Worth Center
08:25PM 33.8683 -95.7750 228° Southwest 410 472 22,800 -1,740 Descending Fort Worth Center
08:26PM 33.7903 -95.8714 226° Southwest 410 472 20,600 -2,280 Descending Fort Worth Center
08:27PM 33.7203 -95.9525 224° Southwest 397 457 18,300 -2,460 Descending Fort Worth Center
08:28PM 33.6358 -96.0464 223° Southwest 384 442 15,700 -2,220 Descending Fort Worth Center
08:29PM 33.5719 -96.1219 225° Southwest 372 428 13,900 -2,040 Descending Fort Worth Center
08:30PM 33.4956 -96.2103 224° Southwest 360 414 11,700 -1,500 Descending Fort Worth Center
08:31PM 33.4358 -96.2783 224° Southwest 343 395 11,000 -360 Descending Fort Worth Center
08:32PM 33.3758 -96.3586 228° Southwest 317 365 11,000  Level Fort Worth Center
08:33PM 33.3347 -96.4339 237° Southwest 304 350 11,000 -360 Level Fort Worth Center
08:34PM 33.2917 -96.5236 240° Southwest 293 337 10,300 -900 Descending Fort Worth Center
08:35PM 33.2544 -96.6061 242° Southwest 293 337 9,300 -960 Descending Fort Worth Center
08:36PM 33.2319 -96.6833 251° West 283 326 8,400 -1,140 Descending Fort Worth Center
08:37PM 33.2014 -96.7778 249° West 278 320 7,100 -1,080 Descending Fort Worth Center
08:38PM 33.1578 -96.8403 230° Southwest 272 313 6,300 -1,200 Descending Fort Worth Center
08:39PM 33.1081 -96.9200 233° Southwest 277 319 4,800 -1,380 Descending Fort Worth Center
08:39PM 33.1000 -96.9500 252° West 248 285 4,400 -1,080 Descending Dallas / Fort Worth TRACON